THY3VL LTFM-LWSK
Flight info
| Callsign | THY3VL |
|---|---|
| Flight time | 1h 0m |
| Altitude | 36000 |
| Route | VADEN N618 BAKLO DCT LETNI DCT SIN |
| Aircraft | A321/M-SDE3FGHIRWY/LB1 |
Departure
| Time | 2026-05-01 08:22 |
|---|---|
| Airport | İstanbul Airport (LTFM) |
Arrival
| Time | 2026-05-01 09:22 |
|---|---|
| Airport | Skopje International Airport (LWSK) |
| Time | Latitude | Longitude | Altitude | Speed | Heading |
|---|---|---|---|---|---|
| 2026-05-01 07:50 | 41.26493 | 28.73782 | 314 ft | 0 kts | 252° |
| 2026-05-01 08:11 | 41.26497 | 28.73798 | 312 ft | 3 kts | 252° |
| 2026-05-01 08:12 | 41.26507 | 28.73850 | 311 ft | 3 kts | 264° |
| 2026-05-01 08:12 | 41.26507 | 28.73875 | 311 ft | 3 kts | 290° |
| 2026-05-01 08:12 | 41.26498 | 28.73892 | 312 ft | 0 kts | 342° |
| 2026-05-01 08:15 | 41.26504 | 28.73889 | 312 ft | 3 kts | 342° |
| 2026-05-01 08:15 | 41.26535 | 28.73877 | 312 ft | 6 kts | 348° |
| 2026-05-01 08:16 | 41.26590 | 28.73873 | 313 ft | 9 kts | 357° |
| 2026-05-01 08:16 | 41.26660 | 28.73874 | 313 ft | 12 kts | 360° |
| 2026-05-01 08:16 | 41.26751 | 28.73872 | 313 ft | 13 kts | 359° |
| 2026-05-01 08:16 | 41.26827 | 28.73871 | 313 ft | 9 kts | 359° |
| 2026-05-01 08:17 | 41.26870 | 28.73834 | 313 ft | 8 kts | 291° |
| 2026-05-01 08:17 | 41.26872 | 28.73753 | 313 ft | 10 kts | 270° |
| 2026-05-01 08:17 | 41.26872 | 28.73646 | 313 ft | 13 kts | 269° |
| 2026-05-01 08:17 | 41.26870 | 28.73516 | 313 ft | 15 kts | 268° |
| 2026-05-01 08:18 | 41.26868 | 28.73368 | 313 ft | 17 kts | 269° |
| 2026-05-01 08:18 | 41.26838 | 28.73111 | 311 ft | 12 kts | 205° |
| 2026-05-01 08:19 | 41.26675 | 28.73108 | 311 ft | 12 kts | 179° |
| 2026-05-01 08:19 | 41.26588 | 28.73110 | 311 ft | 14 kts | 179° |
| 2026-05-01 08:19 | 41.26484 | 28.73112 | 312 ft | 15 kts | 179° |
| 2026-05-01 08:19 | 41.26387 | 28.73113 | 313 ft | 13 kts | 179° |
| 2026-05-01 08:20 | 41.26307 | 28.73115 | 313 ft | 11 kts | 179° |
| 2026-05-01 08:20 | 41.26236 | 28.73103 | 313 ft | 10 kts | 216° |
| 2026-05-01 08:20 | 41.26217 | 28.73000 | 315 ft | 14 kts | 268° |
| 2026-05-01 08:20 | 41.26215 | 28.72864 | 321 ft | 15 kts | 269° |
| 2026-05-01 08:21 | 41.26213 | 28.72712 | 322 ft | 17 kts | 269° |
| 2026-05-01 08:21 | 41.26213 | 28.72590 | 322 ft | 21 kts | 270° |
| 2026-05-01 08:21 | 41.26303 | 28.72523 | 323 ft | 17 kts | 358° |
| 2026-05-01 08:21 | 41.26571 | 28.72517 | 322 ft | 70 kts | 360° |
| 2026-05-01 08:22 | 41.27307 | 28.72505 | 317 ft | 140 kts | 358° |
| 2026-05-01 08:22 | 41.28412 | 28.72476 | 863 ft | 159 kts | 2° |
| 2026-05-01 08:22 | 41.29822 | 28.72387 | 2366 ft | 142 kts | 0° |
| 2026-05-01 08:22 | 41.30384 | 28.72337 | 2868 ft | 132 kts | 3° |
| 2026-05-01 08:23 | 41.31327 | 28.72338 | 3288 ft | 143 kts | 5° |
| 2026-05-01 08:23 | 41.32400 | 28.72380 | 3571 ft | 166 kts | 5° |
| 2026-05-01 08:23 | 41.33609 | 28.72424 | 3852 ft | 187 kts | 5° |
| 2026-05-01 08:23 | 41.34986 | 28.72467 | 4017 ft | 209 kts | 4° |
| 2026-05-01 08:24 | 41.36523 | 28.72505 | 4335 ft | 228 kts | 3° |
| 2026-05-01 08:24 | 41.38087 | 28.72062 | 5081 ft | 241 kts | 334° |
| 2026-05-01 08:24 | 41.39327 | 28.70423 | 5616 ft | 262 kts | 310° |
| 2026-05-01 08:24 | 41.40326 | 28.68364 | 6316 ft | 267 kts | 306° |
| 2026-05-01 08:25 | 41.41272 | 28.66204 | 7023 ft | 271 kts | 304° |
| 2026-05-01 08:25 | 41.42208 | 28.64011 | 7724 ft | 274 kts | 303° |
| 2026-05-01 08:25 | 41.43161 | 28.61793 | 8420 ft | 277 kts | 302° |
| 2026-05-01 08:25 | 41.44133 | 28.59562 | 9117 ft | 280 kts | 302° |
| 2026-05-01 08:26 | 41.45124 | 28.57315 | 9821 ft | 283 kts | 301° |
| 2026-05-01 08:26 | 41.46124 | 28.55070 | 10318 ft | 293 kts | 301° |
| 2026-05-01 08:26 | 41.47211 | 28.52645 | 10457 ft | 315 kts | 301° |
| 2026-05-01 08:26 | 41.48374 | 28.50057 | 10598 ft | 334 kts | 301° |
| 2026-05-01 08:27 | 41.49582 | 28.47363 | 11030 ft | 341 kts | 301° |
| 2026-05-01 08:27 | 41.50807 | 28.44635 | 11670 ft | 343 kts | 300° |
| 2026-05-01 08:27 | 41.52035 | 28.41899 | 12332 ft | 344 kts | 300° |
| 2026-05-01 08:27 | 41.53266 | 28.39149 | 13044 ft | 345 kts | 300° |
| 2026-05-01 08:28 | 41.54495 | 28.36398 | 13776 ft | 346 kts | 299° |
| 2026-05-01 08:28 | 41.55727 | 28.33639 | 14412 ft | 347 kts | 299° |
| 2026-05-01 08:28 | 41.56966 | 28.30866 | 14971 ft | 348 kts | 299° |
| 2026-05-01 08:28 | 41.58197 | 28.28071 | 15512 ft | 350 kts | 297° |
| 2026-05-01 08:29 | 41.59356 | 28.25195 | 16027 ft | 352 kts | 295° |
| 2026-05-01 08:29 | 41.60462 | 28.22260 | 16556 ft | 355 kts | 294° |
| 2026-05-01 08:29 | 41.61549 | 28.19292 | 17083 ft | 357 kts | 294° |
| 2026-05-01 08:29 | 41.62631 | 28.16340 | 17611 ft | 359 kts | 294° |
| 2026-05-01 08:30 | 41.63741 | 28.13332 | 18131 ft | 362 kts | 295° |
| 2026-05-01 08:30 | 41.64868 | 28.10305 | 18616 ft | 364 kts | 295° |
| 2026-05-01 08:30 | 41.66006 | 28.07265 | 19031 ft | 367 kts | 295° |
| 2026-05-01 08:30 | 41.67156 | 28.04203 | 19463 ft | 369 kts | 295° |
| 2026-05-01 08:31 | 41.68473 | 28.01243 | 19898 ft | 373 kts | 301° |
| 2026-05-01 08:31 | 41.69900 | 27.98321 | 20332 ft | 376 kts | 300° |
| 2026-05-01 08:31 | 41.71329 | 27.95385 | 20753 ft | 378 kts | 300° |
| 2026-05-01 08:31 | 41.72763 | 27.92422 | 21178 ft | 380 kts | 300° |
| 2026-05-01 08:32 | 41.74203 | 27.89439 | 21597 ft | 382 kts | 300° |
| 2026-05-01 08:32 | 41.75628 | 27.86478 | 22000 ft | 384 kts | 299° |
| 2026-05-01 08:32 | 41.77099 | 27.83420 | 22406 ft | 386 kts | 299° |
| 2026-05-01 08:32 | 41.78538 | 27.80429 | 22812 ft | 388 kts | 299° |
| 2026-05-01 08:33 | 41.80008 | 27.77372 | 23218 ft | 391 kts | 299° |
| 2026-05-01 08:33 | 41.81481 | 27.74304 | 23600 ft | 393 kts | 299° |
| 2026-05-01 08:33 | 41.82962 | 27.71216 | 23953 ft | 395 kts | 299° |
| 2026-05-01 08:33 | 41.84450 | 27.68112 | 24294 ft | 397 kts | 299° |
| 2026-05-01 08:34 | 41.85948 | 27.64981 | 24632 ft | 399 kts | 299° |
| 2026-05-01 08:34 | 41.87448 | 27.61839 | 24965 ft | 401 kts | 299° |
| 2026-05-01 08:34 | 41.88959 | 27.58676 | 25294 ft | 403 kts | 299° |
| 2026-05-01 08:34 | 41.90475 | 27.55503 | 25608 ft | 405 kts | 299° |
| 2026-05-01 08:35 | 41.92002 | 27.52307 | 25927 ft | 407 kts | 300° |
| 2026-05-01 08:35 | 41.93535 | 27.49094 | 26231 ft | 409 kts | 299° |
| 2026-05-01 08:35 | 41.95073 | 27.45864 | 26541 ft | 411 kts | 300° |
| 2026-05-01 08:35 | 41.96618 | 27.42617 | 26849 ft | 414 kts | 300° |
| 2026-05-01 08:36 | 41.98170 | 27.39347 | 27164 ft | 416 kts | 300° |
| 2026-05-01 08:36 | 41.99727 | 27.36068 | 27469 ft | 418 kts | 300° |
| 2026-05-01 08:36 | 42.01293 | 27.32767 | 27771 ft | 420 kts | 300° |
| 2026-05-01 08:36 | 42.02869 | 27.29440 | 28077 ft | 422 kts | 300° |
| 2026-05-01 08:37 | 42.04446 | 27.26100 | 28370 ft | 424 kts | 300° |
| 2026-05-01 08:37 | 42.06016 | 27.22792 | 28664 ft | 426 kts | 302° |
| 2026-05-01 08:37 | 42.07860 | 27.19645 | 28935 ft | 431 kts | 309° |
| 2026-05-01 08:37 | 42.09874 | 27.16640 | 29201 ft | 433 kts | 309° |
| 2026-05-01 08:38 | 42.11893 | 27.13620 | 29462 ft | 434 kts | 309° |
| 2026-05-01 08:38 | 42.13920 | 27.10581 | 29724 ft | 436 kts | 309° |
| 2026-05-01 08:38 | 42.15947 | 27.07533 | 29961 ft | 437 kts | 309° |
| 2026-05-01 08:38 | 42.17977 | 27.04472 | 30264 ft | 437 kts | 309° |
| 2026-05-01 08:39 | 42.20000 | 27.01419 | 30559 ft | 436 kts | 309° |
| 2026-05-01 08:39 | 42.22018 | 26.98372 | 30833 ft | 436 kts | 309° |
| 2026-05-01 08:39 | 42.24032 | 26.95328 | 31093 ft | 435 kts | 309° |
| 2026-05-01 08:39 | 42.26053 | 26.92273 | 31342 ft | 435 kts | 309° |
| 2026-05-01 08:40 | 42.30078 | 26.86175 | 31831 ft | 435 kts | 309° |
| 2026-05-01 08:40 | 42.32092 | 26.83122 | 32063 ft | 435 kts | 309° |
| 2026-05-01 08:40 | 42.34100 | 26.80074 | 32300 ft | 435 kts | 309° |
| 2026-05-01 08:41 | 42.36111 | 26.77019 | 32523 ft | 435 kts | 309° |
| 2026-05-01 08:41 | 42.38121 | 26.73955 | 32744 ft | 435 kts | 309° |
| 2026-05-01 08:41 | 42.40130 | 26.70885 | 32966 ft | 435 kts | 309° |
| 2026-05-01 08:41 | 42.42134 | 26.67825 | 33167 ft | 435 kts | 309° |
| 2026-05-01 08:42 | 42.44148 | 26.64751 | 33395 ft | 436 kts | 309° |
| 2026-05-01 08:42 | 42.46156 | 26.61682 | 33607 ft | 436 kts | 309° |
| 2026-05-01 08:42 | 42.48163 | 26.58606 | 33824 ft | 436 kts | 309° |
| 2026-05-01 08:42 | 42.50133 | 26.55480 | 34019 ft | 435 kts | 304° |
| 2026-05-01 08:43 | 42.51710 | 26.52013 | 34227 ft | 432 kts | 294° |
| 2026-05-01 08:43 | 42.52793 | 26.48234 | 34392 ft | 430 kts | 284° |
| 2026-05-01 08:43 | 42.53353 | 26.44266 | 34545 ft | 429 kts | 274° |
| 2026-05-01 08:43 | 42.53381 | 26.40231 | 34701 ft | 428 kts | 264° |
| 2026-05-01 08:44 | 42.53015 | 26.36276 | 34847 ft | 429 kts | 263° |
| 2026-05-01 08:44 | 42.52613 | 26.32219 | 35005 ft | 429 kts | 263° |
| 2026-05-01 08:44 | 42.52221 | 26.28269 | 35167 ft | 429 kts | 263° |
| 2026-05-01 08:44 | 42.51824 | 26.24258 | 35335 ft | 429 kts | 263° |
| 2026-05-01 08:45 | 42.51428 | 26.20240 | 35498 ft | 429 kts | 263° |
| 2026-05-01 08:45 | 42.51033 | 26.16243 | 35658 ft | 429 kts | 263° |
| 2026-05-01 08:45 | 42.50633 | 26.12240 | 35819 ft | 429 kts | 263° |
| 2026-05-01 08:45 | 42.50230 | 26.08238 | 35982 ft | 429 kts | 263° |
| 2026-05-01 08:46 | 42.49822 | 26.04229 | 36143 ft | 428 kts | 263° |
| 2026-05-01 08:46 | 42.49414 | 26.00225 | 36257 ft | 429 kts | 263° |
| 2026-05-01 08:46 | 42.48598 | 25.92227 | 36290 ft | 429 kts | 263° |
| 2026-05-01 08:47 | 42.47781 | 25.84218 | 36289 ft | 429 kts | 263° |
| 2026-05-01 08:47 | 42.46954 | 25.76228 | 36293 ft | 429 kts | 263° |
| 2026-05-01 08:48 | 42.46123 | 25.68249 | 36297 ft | 429 kts | 263° |
| 2026-05-01 08:48 | 42.45279 | 25.60235 | 36303 ft | 429 kts | 262° |
| 2026-05-01 08:49 | 42.44433 | 25.52236 | 36311 ft | 429 kts | 263° |
| 2026-05-01 08:49 | 42.43595 | 25.44271 | 36318 ft | 430 kts | 263° |
| 2026-05-01 08:50 | 42.42733 | 25.36252 | 36321 ft | 430 kts | 262° |
| 2026-05-01 08:50 | 42.41867 | 25.28242 | 36331 ft | 430 kts | 262° |
| 2026-05-01 08:51 | 42.41001 | 25.20225 | 36319 ft | 431 kts | 262° |
| 2026-05-01 08:51 | 42.40130 | 25.12184 | 36338 ft | 431 kts | 262° |
| 2026-05-01 08:52 | 42.39255 | 25.04199 | 36329 ft | 431 kts | 262° |
| 2026-05-01 08:52 | 42.38365 | 24.96174 | 36329 ft | 431 kts | 262° |
| 2026-05-01 08:53 | 42.37475 | 24.88157 | 36340 ft | 431 kts | 262° |
| 2026-05-01 08:53 | 42.36573 | 24.80119 | 36338 ft | 431 kts | 262° |
| 2026-05-01 08:54 | 42.35668 | 24.72100 | 36341 ft | 431 kts | 262° |
| 2026-05-01 08:54 | 42.34758 | 24.64078 | 36336 ft | 431 kts | 262° |
| 2026-05-01 08:55 | 42.33844 | 24.56073 | 36334 ft | 431 kts | 262° |
| 2026-05-01 08:55 | 42.32922 | 24.48065 | 36327 ft | 431 kts | 262° |
| 2026-05-01 08:56 | 42.31993 | 24.40061 | 36323 ft | 431 kts | 262° |
| 2026-05-01 08:56 | 42.31064 | 24.32061 | 36320 ft | 431 kts | 262° |
| 2026-05-01 08:57 | 42.30131 | 24.24068 | 36318 ft | 431 kts | 262° |
| 2026-05-01 08:57 | 42.29187 | 24.16078 | 36314 ft | 431 kts | 262° |
| 2026-05-01 08:58 | 42.28244 | 24.08148 | 36312 ft | 431 kts | 262° |
| 2026-05-01 08:58 | 42.27294 | 24.00159 | 36312 ft | 431 kts | 262° |
| 2026-05-01 08:59 | 42.26334 | 23.92164 | 35563 ft | 436 kts | 262° |
| 2026-05-01 08:59 | 42.25842 | 23.88101 | 34754 ft | 440 kts | 262° |
| 2026-05-01 08:59 | 42.25346 | 23.84018 | 33970 ft | 441 kts | 262° |
| 2026-05-01 09:00 | 42.24850 | 23.79939 | 33186 ft | 440 kts | 262° |
| 2026-05-01 09:00 | 42.24354 | 23.75877 | 32459 ft | 438 kts | 262° |
| 2026-05-01 09:00 | 42.23863 | 23.71851 | 32030 ft | 431 kts | 262° |
| 2026-05-01 09:00 | 42.23378 | 23.67882 | 31540 ft | 426 kts | 262° |
| 2026-05-01 09:01 | 42.22898 | 23.63960 | 31029 ft | 422 kts | 262° |
| 2026-05-01 09:01 | 42.22424 | 23.60084 | 30542 ft | 418 kts | 262° |
| 2026-05-01 09:01 | 42.21952 | 23.56223 | 29993 ft | 414 kts | 262° |
| 2026-05-01 09:01 | 42.21486 | 23.52428 | 29505 ft | 407 kts | 262° |
| 2026-05-01 09:02 | 42.21022 | 23.48684 | 29018 ft | 401 kts | 261° |
| 2026-05-01 09:02 | 42.20562 | 23.45012 | 28551 ft | 395 kts | 261° |
| 2026-05-01 09:02 | 42.20104 | 23.41380 | 28084 ft | 390 kts | 261° |
| 2026-05-01 09:02 | 42.19652 | 23.37797 | 27626 ft | 384 kts | 261° |
| 2026-05-01 09:03 | 42.19207 | 23.34267 | 27176 ft | 379 kts | 261° |
| 2026-05-01 09:03 | 42.18767 | 23.30782 | 26738 ft | 374 kts | 261° |
| 2026-05-01 09:03 | 42.18332 | 23.27345 | 26312 ft | 370 kts | 261° |
| 2026-05-01 09:03 | 42.17902 | 23.23946 | 25905 ft | 366 kts | 261° |
| 2026-05-01 09:04 | 42.17481 | 23.20624 | 25484 ft | 362 kts | 261° |
| 2026-05-01 09:04 | 42.17060 | 23.17302 | 25084 ft | 358 kts | 261° |
| 2026-05-01 09:04 | 42.16643 | 23.14010 | 24696 ft | 354 kts | 261° |
| 2026-05-01 09:04 | 42.16230 | 23.10754 | 24312 ft | 351 kts | 261° |
| 2026-05-01 09:05 | 42.15814 | 23.07514 | 23941 ft | 349 kts | 261° |
| 2026-05-01 09:05 | 42.15400 | 23.04303 | 23519 ft | 347 kts | 261° |
| 2026-05-01 09:05 | 42.14986 | 23.01103 | 23148 ft | 346 kts | 261° |
| 2026-05-01 09:05 | 42.14574 | 22.97915 | 22767 ft | 345 kts | 261° |
| 2026-05-01 09:06 | 42.14164 | 22.94748 | 22383 ft | 343 kts | 261° |
| 2026-05-01 09:06 | 42.13753 | 22.91591 | 22005 ft | 341 kts | 262° |
| 2026-05-01 09:06 | 42.13346 | 22.88450 | 21626 ft | 339 kts | 262° |
| 2026-05-01 09:06 | 42.12945 | 22.85330 | 21236 ft | 338 kts | 262° |
| 2026-05-01 09:07 | 42.12543 | 22.82223 | 20850 ft | 336 kts | 262° |
| 2026-05-01 09:07 | 42.12138 | 22.79122 | 20453 ft | 335 kts | 262° |
| 2026-05-01 09:07 | 42.11735 | 22.76036 | 20051 ft | 334 kts | 262° |
| 2026-05-01 09:07 | 42.11336 | 22.72996 | 19656 ft | 333 kts | 262° |
| 2026-05-01 09:08 | 42.10926 | 22.69889 | 19240 ft | 332 kts | 262° |
| 2026-05-01 09:08 | 42.10527 | 22.66866 | 18841 ft | 332 kts | 262° |
| 2026-05-01 09:08 | 42.10124 | 22.63810 | 18410 ft | 331 kts | 261° |
| 2026-05-01 09:08 | 42.09511 | 22.60832 | 17957 ft | 331 kts | 250° |
| 2026-05-01 09:09 | 42.08483 | 22.58049 | 17528 ft | 332 kts | 239° |
| 2026-05-01 09:09 | 42.07632 | 22.56293 | 17244 ft | 331 kts | 239° |
| 2026-05-01 09:09 | 42.05967 | 22.52863 | 16676 ft | 330 kts | 238° |
| 2026-05-01 09:09 | 42.05140 | 22.51155 | 16400 ft | 329 kts | 239° |
| 2026-05-01 09:10 | 42.03880 | 22.48547 | 15973 ft | 327 kts | 239° |
| 2026-05-01 09:10 | 42.02660 | 22.46021 | 15562 ft | 325 kts | 238° |
| 2026-05-01 09:10 | 42.01429 | 22.43475 | 15146 ft | 324 kts | 238° |
| 2026-05-01 09:10 | 42.00205 | 22.40943 | 14732 ft | 322 kts | 238° |
| 2026-05-01 09:11 | 41.99040 | 22.38386 | 14311 ft | 319 kts | 245° |
| 2026-05-01 09:11 | 41.98239 | 22.35623 | 13905 ft | 315 kts | 257° |
| 2026-05-01 09:11 | 41.97860 | 22.32742 | 13489 ft | 312 kts | 268° |
| 2026-05-01 09:11 | 41.97697 | 22.29838 | 13095 ft | 311 kts | 267° |
| 2026-05-01 09:12 | 41.97526 | 22.26952 | 12699 ft | 310 kts | 267° |
| 2026-05-01 09:12 | 41.97350 | 22.24071 | 12309 ft | 308 kts | 267° |
| 2026-05-01 09:12 | 41.97172 | 22.21208 | 11922 ft | 307 kts | 266° |
| 2026-05-01 09:12 | 41.96769 | 22.18398 | 11535 ft | 307 kts | 254° |
| 2026-05-01 09:13 | 41.95961 | 22.15753 | 11131 ft | 306 kts | 245° |
| 2026-05-01 09:13 | 41.95038 | 22.13181 | 10731 ft | 305 kts | 245° |
| 2026-05-01 09:13 | 41.94133 | 22.10629 | 10415 ft | 300 kts | 245° |
| 2026-05-01 09:13 | 41.93257 | 22.08147 | 10187 ft | 296 kts | 245° |
| 2026-05-01 09:14 | 41.92378 | 22.05652 | 10071 ft | 296 kts | 245° |
| 2026-05-01 09:14 | 41.91494 | 22.03145 | 9846 ft | 298 kts | 245° |
| 2026-05-01 09:14 | 41.90597 | 22.00614 | 9366 ft | 299 kts | 245° |
| 2026-05-01 09:14 | 41.89707 | 21.98115 | 8981 ft | 296 kts | 245° |
| 2026-05-01 09:15 | 41.88817 | 21.95616 | 8558 ft | 295 kts | 245° |
| 2026-05-01 09:15 | 41.87935 | 21.93138 | 8160 ft | 294 kts | 245° |
| 2026-05-01 09:15 | 41.87057 | 21.90677 | 7789 ft | 291 kts | 245° |
| 2026-05-01 09:15 | 41.86181 | 21.88234 | 7431 ft | 290 kts | 246° |
| 2026-05-01 09:16 | 41.85310 | 21.85808 | 7069 ft | 288 kts | 246° |
| 2026-05-01 09:16 | 41.84446 | 21.83400 | 6687 ft | 283 kts | 246° |
| 2026-05-01 09:16 | 41.83598 | 21.81036 | 5928 ft | 280 kts | 246° |
| 2026-05-01 09:17 | 41.81931 | 21.76392 | 4699 ft | 265 kts | 246° |
| 2026-05-01 09:17 | 41.81163 | 21.74263 | 4551 ft | 241 kts | 246° |
| 2026-05-01 09:17 | 41.80239 | 21.70245 | 4334 ft | 212 kts | 281° |
| 2026-05-01 09:18 | 41.80718 | 21.68510 | 4172 ft | 190 kts | 306° |
| 2026-05-01 09:18 | 41.82701 | 21.66818 | 3649 ft | 157 kts | 347° |
| 2026-05-01 09:19 | 41.84715 | 21.66120 | 3195 ft | 144 kts | 348° |
| 2026-05-01 09:19 | 41.85673 | 21.65788 | 2964 ft | 143 kts | 348° |
| 2026-05-01 09:19 | 41.86640 | 21.65453 | 2767 ft | 145 kts | 348° |
| 2026-05-01 09:20 | 41.88570 | 21.64782 | 2271 ft | 143 kts | 347° |
| 2026-05-01 09:20 | 41.90494 | 21.64116 | 1820 ft | 143 kts | 345° |
| 2026-05-01 09:21 | 41.92408 | 21.63457 | 1410 ft | 141 kts | 348° |
| 2026-05-01 09:21 | 41.93356 | 21.63108 | 1203 ft | 141 kts | 347° |
| 2026-05-01 09:21 | 41.95229 | 21.62477 | 810 ft | 125 kts | 344° |
| 2026-05-01 09:22 | 41.96459 | 21.62041 | 815 ft | 52 kts | 345° |
| 2026-05-01 09:22 | 41.96926 | 21.61876 | 819 ft | 24 kts | 345° |
| 2026-05-01 09:23 | 41.96998 | 21.61952 | 820 ft | 15 kts | 115° |
| 2026-05-01 09:23 | 41.96848 | 21.62168 | 817 ft | 17 kts | 159° |
| 2026-05-01 09:24 | 41.96601 | 21.62257 | 818 ft | 20 kts | 165° |
| 2026-05-01 09:24 | 41.96464 | 21.62304 | 816 ft | 18 kts | 164° |
| 2026-05-01 09:24 | 41.96237 | 21.62387 | 814 ft | 16 kts | 165° |
| 2026-05-01 09:25 | 41.96028 | 21.62460 | 783 ft | 11 kts | 152° |
| 2026-05-01 09:25 | 41.96027 | 21.62563 | 782 ft | 5 kts | 75° |
| 2026-05-01 09:26 | 41.96037 | 21.62597 | 782 ft | 0 kts | 65° |